createdAt,value
2019-03-29T00:00:39.229Z,10.78
2019-03-29T00:02:38.830Z,10.72
2019-03-29T00:03:38.815Z,10.86
2019-03-29T00:04:38.805Z,10.75
2019-03-29T00:06:38.756Z,10.78
2019-03-29T00:07:41.841Z,10.76
2019-03-29T00:08:38.716Z,10.86
2019-03-29T00:09:38.690Z,10.75
2019-03-29T00:10:38.671Z,10.76
2019-03-29T00:11:38.964Z,10.75
2019-03-29T00:12:38.631Z,10.76
2019-03-29T00:13:38.708Z,10.82
2019-03-29T00:16:38.648Z,10.82
2019-03-29T00:17:38.634Z,10.73
2019-03-29T00:18:38.511Z,10.79
2019-03-29T00:19:38.525Z,10.76
2019-03-29T00:20:38.765Z,10.73
2019-03-29T00:21:39.187Z,10.79
2019-03-29T00:22:38.622Z,10.72
2019-03-29T00:23:38.467Z,10.78
2019-03-29T00:24:38.430Z,10.75
2019-03-29T00:25:38.461Z,10.82
2019-03-29T00:26:38.643Z,10.82
2019-03-29T00:27:38.436Z,10.82
2019-03-29T00:29:38.279Z,10.79
2019-03-29T00:30:38.267Z,10.79
2019-03-29T00:31:38.241Z,10.75
2019-03-29T00:32:38.540Z,10.73
2019-03-29T00:33:38.298Z,10.75
2019-03-29T00:35:38.168Z,10.73
2019-03-29T00:36:38.139Z,10.73
2019-03-29T00:37:38.237Z,10.72
2019-03-29T00:38:38.459Z,10.67
2019-03-29T00:39:38.073Z,10.72
2019-03-29T00:40:38.071Z,10.75
2019-03-29T00:41:38.042Z,10.73
2019-03-29T00:42:38.114Z,10.68
2019-03-29T00:43:38.092Z,10.70
2019-03-29T00:44:38.273Z,10.73
2019-03-29T00:45:37.964Z,10.68
2019-03-29T00:46:38.113Z,10.73
2019-03-29T00:47:38.104Z,10.67
2019-03-29T00:49:37.887Z,10.78
2019-03-29T00:50:38.106Z,10.73
2019-03-29T00:51:37.833Z,10.64
2019-03-29T00:52:37.825Z,10.68
2019-03-29T00:53:37.803Z,10.75
2019-03-29T00:54:37.775Z,10.73
2019-03-29T00:55:37.768Z,10.65
2019-03-29T00:56:38.965Z,10.65
2019-03-29T00:57:37.965Z,10.70
2019-03-29T00:58:37.793Z,10.65
2019-03-29T00:59:37.775Z,10.67
2019-03-29T01:00:37.651Z,10.70
2019-03-29T01:01:37.934Z,10.68
2019-03-29T01:02:37.626Z,10.60
2019-03-29T01:03:37.587Z,10.58
2019-03-29T01:04:37.928Z,10.62
2019-03-29T01:05:37.575Z,10.58
2019-03-29T01:06:37.577Z,10.61
2019-03-29T01:07:37.612Z,10.61
2019-03-29T01:08:38.130Z,10.61
2019-03-29T01:09:37.579Z,10.55
2019-03-29T01:10:37.546Z,10.62
2019-03-29T01:11:37.734Z,10.62
2019-03-29T01:12:37.415Z,10.57
2019-03-29T01:13:37.398Z,10.62
2019-03-29T01:14:37.367Z,10.61
2019-03-29T01:16:37.367Z,10.64
2019-03-29T01:17:37.609Z,10.60
2019-03-29T01:18:38.050Z,10.61
2019-03-29T01:19:37.271Z,10.67
2019-03-29T01:20:37.254Z,10.60
2019-03-29T01:21:37.226Z,10.61
2019-03-29T01:22:37.215Z,10.58
2019-03-29T01:23:37.185Z,10.65
2019-03-29T01:24:37.272Z,10.57
2019-03-29T01:25:37.444Z,10.58
2019-03-29T01:26:37.120Z,10.60
2019-03-29T01:27:37.099Z,10.61
2019-03-29T01:28:37.104Z,10.58
2019-03-29T01:29:37.063Z,10.61
2019-03-29T01:30:37.041Z,10.65
2019-03-29T01:31:37.017Z,10.57
2019-03-29T01:32:37.318Z,10.55
2019-03-29T01:33:36.978Z,10.64
2019-03-29T01:34:36.954Z,10.67
2019-03-29T01:35:36.936Z,10.64
2019-03-29T01:36:36.922Z,10.60
2019-03-29T01:37:36.894Z,10.55
2019-03-29T01:38:37.226Z,10.62
2019-03-29T01:39:36.959Z,10.55
2019-03-29T01:40:36.982Z,10.57
2019-03-29T01:42:36.891Z,10.57
2019-03-29T01:43:36.776Z,10.48
2019-03-29T01:44:37.102Z,10.49
2019-03-29T01:45:36.831Z,10.52
2019-03-29T01:46:37.915Z,10.49
2019-03-29T01:47:36.695Z,10.61
2019-03-29T01:48:36.672Z,10.46
2019-03-29T01:49:36.950Z,10.43
2019-03-29T01:50:36.894Z,10.52
2019-03-29T01:51:36.610Z,10.52
2019-03-29T01:52:36.593Z,10.55
2019-03-29T01:53:37.283Z,10.48
2019-03-29T01:54:36.885Z,10.54
2019-03-29T01:55:36.743Z,10.49
2019-03-29T01:56:36.760Z,10.48
2019-03-29T01:57:36.485Z,10.49
2019-03-29T01:58:36.464Z,10.41
2019-03-29T01:59:36.448Z,10.49
2019-03-29T02:00:36.559Z,10.46
2019-03-29T02:01:36.505Z,10.57
2019-03-29T02:02:36.703Z,10.55
2019-03-29T02:03:37.173Z,10.49
2019-03-29T02:04:36.391Z,10.55
2019-03-29T02:05:36.435Z,10.54
2019-03-29T02:06:36.330Z,10.43
2019-03-29T02:07:36.281Z,10.49
2019-03-29T02:08:37.819Z,10.48
2019-03-29T02:09:36.239Z,10.48
2019-03-29T02:10:36.221Z,10.49
2019-03-29T02:11:36.200Z,10.55
2019-03-29T02:12:36.178Z,10.43
2019-03-29T02:13:36.356Z,10.43
2019-03-29T02:14:36.555Z,10.43
2019-03-29T02:15:36.159Z,10.45
2019-03-29T02:17:36.075Z,10.45
2019-03-29T02:18:36.152Z,10.46
2019-03-29T02:19:36.031Z,10.43
2019-03-29T02:20:36.024Z,10.43
2019-03-29T02:21:36.294Z,10.30
2019-03-29T02:22:36.968Z,10.45
2019-03-29T02:24:35.931Z,10.43
2019-03-29T02:26:35.988Z,10.41
2019-03-29T02:27:35.870Z,10.43
2019-03-29T02:28:36.143Z,10.43
2019-03-29T02:30:35.914Z,10.43
2019-03-29T02:31:35.891Z,10.30
2019-03-29T02:32:35.768Z,10.41
2019-03-29T02:33:35.849Z,10.41
2019-03-29T02:34:36.049Z,10.28
2019-03-29T02:35:35.972Z,10.31
2019-03-29T02:36:35.801Z,10.41
2019-03-29T02:37:35.663Z,10.34
2019-03-29T02:38:47.434Z,10.39
2019-03-29T02:39:35.640Z,10.45
2019-03-29T02:40:35.598Z,10.31
2019-03-29T02:41:35.782Z,10.35
2019-03-29T02:42:35.808Z,10.38
2019-03-29T02:43:35.535Z,10.36
2019-03-29T02:44:35.515Z,10.36
2019-03-29T02:45:35.490Z,10.30
2019-03-29T02:46:35.777Z,10.35
2019-03-29T02:47:35.459Z,10.31
2019-03-29T02:48:35.442Z,10.28
2019-03-29T02:49:35.994Z,10.31
2019-03-29T02:51:35.385Z,10.38
2019-03-29T02:52:35.470Z,10.34
2019-03-29T02:53:35.449Z,10.35
2019-03-29T02:54:35.305Z,10.36
2019-03-29T02:55:35.286Z,10.35
2019-03-29T02:56:35.567Z,10.35
2019-03-29T02:57:35.944Z,10.38
2019-03-29T02:58:35.220Z,10.35
2019-03-29T02:59:35.282Z,10.28
2019-03-29T03:00:35.184Z,10.28
2019-03-29T03:02:35.236Z,10.30
2019-03-29T03:03:35.428Z,10.35
2019-03-29T03:04:35.209Z,10.36
2019-03-29T03:05:35.381Z,10.39
2019-03-29T03:06:35.166Z,10.35
2019-03-29T03:07:35.139Z,10.31
2019-03-29T03:08:35.718Z,10.39
2019-03-29T03:09:35.295Z,10.34
2019-03-29T03:11:35.057Z,10.38
2019-03-29T03:12:35.034Z,10.35
2019-03-29T03:13:35.013Z,10.34
2019-03-29T03:14:34.896Z,10.34
2019-03-29T03:15:35.171Z,10.31
2019-03-29T03:16:34.950Z,10.30
2019-03-29T03:17:34.839Z,10.36
2019-03-29T03:18:34.815Z,10.35
2019-03-29T03:19:34.790Z,10.35
2019-03-29T03:20:34.769Z,10.36
2019-03-29T03:21:35.037Z,10.34
2019-03-29T03:22:34.729Z,10.35
2019-03-29T03:23:35.007Z,10.34
2019-03-29T03:24:34.697Z,10.35
2019-03-29T03:25:34.685Z,10.28
2019-03-29T03:26:34.753Z,10.28
2019-03-29T03:27:35.236Z,10.27
2019-03-29T03:28:34.613Z,10.35
2019-03-29T03:29:34.682Z,10.21
2019-03-29T03:30:34.565Z,10.30
2019-03-29T03:31:34.638Z,10.26
2019-03-29T03:32:34.836Z,10.28
2019-03-29T03:33:34.910Z,10.26
2019-03-29T03:34:34.512Z,10.26
2019-03-29T03:35:34.462Z,10.27
2019-03-29T03:36:34.445Z,10.38
2019-03-29T03:37:34.518Z,10.36
2019-03-29T03:38:34.401Z,10.34
2019-03-29T03:39:34.681Z,10.41
2019-03-29T03:40:34.353Z,10.34
2019-03-29T03:41:34.333Z,10.34
2019-03-29T03:42:34.418Z,10.42
2019-03-29T03:43:34.293Z,10.38
2019-03-29T03:44:34.374Z,10.35
2019-03-29T03:45:34.254Z,10.31
2019-03-29T03:47:34.208Z,10.31
2019-03-29T03:48:34.228Z,10.34
2019-03-29T03:49:34.170Z,10.34
2019-03-29T03:50:34.269Z,10.41
2019-03-29T03:51:34.288Z,10.35
2019-03-29T03:52:34.210Z,10.34
2019-03-29T03:53:34.392Z,10.36
2019-03-29T03:54:34.062Z,10.38
2019-03-29T03:55:34.147Z,10.35
2019-03-29T03:56:34.050Z,10.35
2019-03-29T03:57:34.000Z,10.34
2019-03-29T03:58:33.982Z,10.39
2019-03-29T04:00:34.076Z,10.34
2019-03-29T04:01:34.170Z,10.42
2019-03-29T04:02:33.902Z,10.35
2019-03-29T04:03:33.883Z,10.31
2019-03-29T04:04:37.498Z,10.35
2019-03-29T04:05:33.846Z,10.38
2019-03-29T04:06:33.839Z,10.35
2019-03-29T04:07:33.820Z,10.36
2019-03-29T04:08:34.074Z,10.36
2019-03-29T04:09:48.502Z,10.36
2019-03-29T04:10:33.734Z,10.35
2019-03-29T04:11:33.720Z,10.38
2019-03-29T04:12:33.705Z,10.35
2019-03-29T04:13:33.684Z,10.36
2019-03-29T04:14:33.645Z,10.28
2019-03-29T04:16:33.940Z,10.30
2019-03-29T04:17:33.682Z,10.34
2019-03-29T04:18:33.570Z,10.35
2019-03-29T04:19:33.544Z,10.38
2019-03-29T04:20:33.520Z,10.36
2019-03-29T04:21:33.529Z,10.34
2019-03-29T04:22:33.493Z,10.34
2019-03-29T04:23:33.708Z,10.35
2019-03-29T04:25:33.427Z,10.28
2019-03-29T04:26:33.401Z,10.27
2019-03-29T04:28:33.367Z,10.30
2019-03-29T04:29:33.450Z,10.28
2019-03-29T04:31:33.317Z,10.27
2019-03-29T04:32:33.279Z,10.27
2019-03-29T04:33:33.256Z,10.23
2019-03-29T04:34:33.356Z,10.23
2019-03-29T04:35:33.224Z,10.24
2019-03-29T04:36:33.494Z,10.24
2019-03-29T04:37:33.188Z,10.28
2019-03-29T04:38:33.207Z,10.14
2019-03-29T04:39:33.137Z,10.26
2019-03-29T04:42:33.131Z,10.20
2019-03-29T04:43:33.304Z,10.20
2019-03-29T04:44:33.032Z,10.23
2019-03-29T04:46:33.289Z,10.26
2019-03-29T04:47:32.961Z,10.38
2019-03-29T04:48:32.951Z,10.31
2019-03-29T04:49:33.223Z,10.35
2019-03-29T04:50:32.899Z,10.38
2019-03-29T04:52:32.867Z,10.31
2019-03-29T04:53:32.842Z,10.31
2019-03-29T04:54:32.917Z,10.36
2019-03-29T04:55:33.101Z,10.36
2019-03-29T04:56:32.878Z,10.36
2019-03-29T04:57:33.054Z,10.39
2019-03-29T04:59:32.724Z,10.42
2019-03-29T05:00:33.008Z,10.36
2019-03-29T05:01:33.078Z,10.41
2019-03-29T05:02:32.653Z,10.41
2019-03-29T05:04:32.617Z,10.43
2019-03-29T05:06:32.598Z,10.31
2019-03-29T05:07:33.017Z,10.31
2019-03-29T05:08:32.639Z,10.28
2019-03-29T05:09:32.533Z,10.36
2019-03-29T05:10:32.598Z,10.31
2019-03-29T05:11:32.481Z,10.34
2019-03-29T05:12:32.556Z,10.36
2019-03-29T05:13:32.431Z,10.35
2019-03-29T05:15:32.698Z,10.27
2019-03-29T05:16:32.365Z,10.38
2019-03-29T05:17:32.349Z,10.38
2019-03-29T05:18:32.323Z,10.31
2019-03-29T05:21:32.612Z,10.30
2019-03-29T05:22:32.536Z,10.34
2019-03-29T05:23:32.224Z,10.31
2019-03-29T05:24:32.323Z,10.35
2019-03-29T05:25:32.212Z,10.38
2019-03-29T05:26:32.174Z,10.39
2019-03-29T05:27:32.411Z,10.35
2019-03-29T05:28:32.129Z,10.30
2019-03-29T05:29:32.395Z,10.42
2019-03-29T05:30:32.134Z,10.38
2019-03-29T05:31:32.065Z,10.43
2019-03-29T05:32:32.035Z,10.43
2019-03-29T05:33:32.108Z,10.45
2019-03-29T05:35:32.274Z,10.48
2019-03-29T05:36:32.263Z,10.49
2019-03-29T05:37:32.703Z,10.46
2019-03-29T05:38:32.007Z,10.52
2019-03-29T05:39:32.019Z,10.49
2019-03-29T05:40:35.124Z,10.55
2019-03-29T05:41:31.847Z,10.52
2019-03-29T05:42:31.926Z,10.48
2019-03-29T05:43:32.068Z,10.48
2019-03-29T05:44:31.807Z,10.55
2019-03-29T05:45:31.769Z,10.52
2019-03-29T05:46:31.810Z,10.52
2019-03-29T05:47:31.737Z,10.49
2019-03-29T05:48:31.714Z,10.49
2019-03-29T05:49:31.703Z,10.54
2019-03-29T05:50:31.970Z,10.55
2019-03-29T05:51:31.737Z,10.64
2019-03-29T05:52:31.630Z,10.61
2019-03-29T05:53:31.899Z,10.57
2019-03-29T05:54:31.715Z,10.67
2019-03-29T05:55:32.760Z,10.60
2019-03-29T05:56:31.660Z,10.57
2019-03-29T05:57:32.075Z,10.61
2019-03-29T06:00:31.520Z,10.68
2019-03-29T06:01:31.639Z,10.64
2019-03-29T06:02:31.728Z,10.73
2019-03-29T06:03:31.395Z,10.62
2019-03-29T06:05:31.498Z,10.68
2019-03-29T06:06:31.375Z,10.67
2019-03-29T06:07:31.320Z,10.70
2019-03-29T06:08:31.617Z,10.67
2019-03-29T06:09:31.376Z,10.68
2019-03-29T06:11:31.235Z,10.64
2019-03-29T06:12:31.213Z,10.80
2019-03-29T06:13:31.192Z,10.76
2019-03-29T06:15:31.873Z,10.73
2019-03-29T06:16:38.855Z,10.72
2019-03-29T06:17:31.158Z,10.83
2019-03-29T06:18:31.107Z,10.83
2019-03-29T06:19:31.084Z,10.79
2019-03-29T06:20:31.072Z,10.80
2019-03-29T06:21:31.129Z,10.87
2019-03-29T06:22:31.120Z,10.85
2019-03-29T06:23:31.748Z,10.93
2019-03-29T06:24:31.011Z,10.94
2019-03-29T06:26:31.248Z,11.01
2019-03-29T06:27:30.925Z,10.98
2019-03-29T06:29:30.885Z,11.01
2019-03-29T06:31:30.843Z,11.04
2019-03-29T06:32:30.839Z,11.01
2019-03-29T06:33:31.096Z,11.05
2019-03-29T06:35:30.768Z,11.12
2019-03-29T06:36:30.757Z,11.16
2019-03-29T06:37:30.740Z,11.13
2019-03-29T06:38:30.691Z,11.13
2019-03-29T06:39:30.705Z,11.05
2019-03-29T06:41:30.636Z,11.19
2019-03-29T06:42:30.638Z,11.20
2019-03-29T06:43:30.713Z,11.16
2019-03-29T06:44:30.620Z,11.25
2019-03-29T06:45:30.558Z,11.28
2019-03-29T06:46:30.631Z,11.25
2019-03-29T06:47:30.525Z,11.28
2019-03-29T06:48:30.505Z,11.28
2019-03-29T06:49:30.506Z,11.16
2019-03-29T06:50:30.462Z,11.18
2019-03-29T06:51:30.555Z,11.30
2019-03-29T06:52:30.418Z,11.25
2019-03-29T06:53:30.398Z,11.23
2019-03-29T06:54:30.392Z,11.34
2019-03-29T06:55:30.383Z,11.34
2019-03-29T06:56:30.338Z,11.40
2019-03-29T06:57:30.333Z,11.49
2019-03-29T06:58:30.301Z,11.51
2019-03-29T06:59:30.628Z,11.58
2019-03-29T07:00:30.349Z,11.52
2019-03-29T07:01:30.349Z,11.54
2019-03-29T07:03:30.220Z,11.61
2019-03-29T07:04:30.210Z,11.59
2019-03-29T07:05:30.185Z,11.71
2019-03-29T07:06:32.462Z,11.74
2019-03-29T07:07:30.139Z,11.80
2019-03-29T07:08:30.813Z,11.95
2019-03-29T07:09:30.095Z,11.93
2019-03-29T07:10:30.138Z,11.99
2019-03-29T07:11:30.073Z,11.93
2019-03-29T07:12:30.037Z,12.05
2019-03-29T07:14:30.339Z,12.00
2019-03-29T07:15:29.988Z,11.97
2019-03-29T07:16:30.579Z,12.10
2019-03-29T07:17:30.003Z,12.15
2019-03-29T07:18:29.946Z,12.17
2019-03-29T07:20:30.327Z,12.32
2019-03-29T07:21:31.056Z,12.36
2019-03-29T07:23:29.848Z,12.53
2019-03-29T07:24:30.123Z,12.63
2019-03-29T07:25:29.788Z,12.59
2019-03-29T07:26:30.022Z,12.63
2019-03-29T07:27:38.775Z,12.53
2019-03-29T07:28:30.296Z,12.71
2019-03-29T07:29:29.712Z,12.88
2019-03-29T07:30:29.712Z,13.19
2019-03-29T07:31:29.981Z,13.54
2019-03-29T07:32:29.965Z,13.80
2019-03-29T07:33:30.093Z,14.15
2019-03-29T07:34:30.478Z,14.41
2019-03-29T07:35:30.095Z,14.90
2019-03-29T07:36:31.412Z,15.26
2019-03-29T07:37:30.384Z,15.50
2019-03-29T07:39:29.704Z,15.80
2019-03-29T07:40:29.532Z,15.95
2019-03-29T07:41:32.180Z,16.17
2019-03-29T07:43:31.152Z,16.08
2019-03-29T07:44:30.326Z,16.32
2019-03-29T07:45:29.546Z,16.47
2019-03-29T07:46:29.756Z,16.65
2019-03-29T07:47:29.394Z,16.58
2019-03-29T07:48:29.380Z,16.44
2019-03-29T07:49:29.381Z,16.44
2019-03-29T07:50:30.128Z,16.83
2019-03-29T07:52:29.315Z,17.06
2019-03-29T07:53:29.297Z,16.36
2019-03-29T07:54:29.282Z,16.25
2019-03-29T07:55:29.278Z,16.59
2019-03-29T07:56:29.558Z,16.57
2019-03-29T07:57:29.336Z,16.67
2019-03-29T07:59:29.536Z,16.65
2019-03-29T08:00:29.191Z,16.74
2019-03-29T08:01:32.465Z,17.22
2019-03-29T08:03:29.538Z,18.17
2019-03-29T08:04:29.196Z,18.36
2019-03-29T08:05:29.208Z,18.30
2019-03-29T08:06:29.384Z,18.26
2019-03-29T08:08:33.311Z,18.64
2019-03-29T08:09:29.457Z,18.67
2019-03-29T08:10:31.477Z,18.64
2019-03-29T08:11:29.173Z,18.88
2019-03-29T08:13:28.990Z,18.45
2019-03-29T08:14:28.979Z,18.31
2019-03-29T08:15:29.036Z,18.26
2019-03-29T08:16:29.062Z,18.42
2019-03-29T08:17:29.944Z,18.21
2019-03-29T08:18:29.016Z,17.76
2019-03-29T08:19:28.904Z,17.73
2019-03-29T08:20:44.805Z,17.04
2019-03-29T08:21:28.909Z,16.21
2019-03-29T08:22:28.951Z,16.54
2019-03-29T08:23:29.041Z,16.92
2019-03-29T08:24:28.879Z,17.62
2019-03-29T08:25:28.898Z,17.49
2019-03-29T08:26:28.890Z,16.62
2019-03-29T08:27:28.822Z,17.09
2019-03-29T08:28:28.826Z,17.24
2019-03-29T08:29:31.306Z,17.96
2019-03-29T08:31:28.822Z,16.62
2019-03-29T08:32:28.840Z,16.59
2019-03-29T08:33:29.790Z,16.65
2019-03-29T08:34:29.071Z,16.37
2019-03-29T08:35:28.941Z,16.24
2019-03-29T08:36:29.031Z,16.92
2019-03-29T08:37:28.940Z,17.39
2019-03-29T08:38:28.726Z,17.09
2019-03-29T08:39:28.705Z,17.25
2019-03-29T08:40:29.621Z,18.13
2019-03-29T08:41:28.723Z,17.79
2019-03-29T08:42:29.108Z,17.88
2019-03-29T08:43:34.449Z,17.39
2019-03-29T08:44:28.683Z,17.01
2019-03-29T08:45:28.630Z,16.29
2019-03-29T08:46:28.567Z,16.70
2019-03-29T08:47:28.675Z,16.08
2019-03-29T08:49:29.517Z,15.83
2019-03-29T08:50:28.508Z,15.62
2019-03-29T08:54:28.738Z,15.12
2019-03-29T08:55:28.496Z,14.99
2019-03-29T08:56:28.700Z,14.96
2019-03-29T08:57:28.430Z,14.87
2019-03-29T08:58:28.413Z,14.97
2019-03-29T08:59:28.419Z,14.97
2019-03-29T09:00:28.382Z,14.78
2019-03-29T09:01:28.379Z,14.78
2019-03-29T09:02:28.690Z,14.77
2019-03-29T09:04:28.339Z,14.56
2019-03-29T09:05:28.497Z,14.41
2019-03-29T09:06:30.150Z,14.56
2019-03-29T09:07:28.294Z,14.59
2019-03-29T09:08:28.774Z,14.61
2019-03-29T09:09:28.344Z,14.61
2019-03-29T09:10:28.307Z,14.73
2019-03-29T09:12:29.778Z,14.87
2019-03-29T09:13:28.207Z,14.77
2019-03-29T09:16:28.462Z,14.95
2019-03-29T09:17:28.538Z,14.89
2019-03-29T09:18:28.140Z,14.90
2019-03-29T09:19:28.171Z,14.93
2019-03-29T09:20:28.154Z,14.96
2019-03-29T09:21:28.091Z,14.96
2019-03-29T09:23:30.059Z,15.27
2019-03-29T09:24:28.381Z,15.83
2019-03-29T09:26:28.122Z,15.25
2019-03-29T09:27:27.992Z,15.07
2019-03-29T09:28:28.305Z,14.92
2019-03-29T09:29:27.973Z,14.73
2019-03-29T09:30:27.991Z,14.79
2019-03-29T09:31:27.954Z,14.63
2019-03-29T09:32:28.198Z,14.55
2019-03-29T09:33:27.910Z,14.52
2019-03-29T09:34:28.929Z,14.73
2019-03-29T09:35:28.220Z,14.66
2019-03-29T09:36:27.862Z,14.90
2019-03-29T09:37:27.957Z,14.77
2019-03-29T09:38:27.988Z,14.63
2019-03-29T09:39:28.045Z,14.63
2019-03-29T09:40:27.865Z,14.55
2019-03-29T09:41:27.937Z,15.03
2019-03-29T09:42:30.062Z,15.08
2019-03-29T09:43:28.074Z,15.17
2019-03-29T09:44:27.732Z,15.59
2019-03-29T09:45:27.865Z,16.13
2019-03-29T09:46:27.836Z,15.66
2019-03-29T09:47:28.005Z,15.11
2019-03-29T09:48:27.671Z,15.10
2019-03-29T09:49:27.665Z,15.10
2019-03-29T09:50:28.033Z,15.23
2019-03-29T09:51:27.788Z,14.92
2019-03-29T09:52:27.746Z,14.85
2019-03-29T09:53:27.652Z,14.83
2019-03-29T09:54:27.595Z,14.61
2019-03-29T09:55:27.889Z,14.66
2019-03-29T09:56:38.609Z,14.77
2019-03-29T09:57:37.237Z,16.33
2019-03-29T09:58:27.539Z,17.28
2019-03-29T09:59:27.583Z,17.06
2019-03-29T10:00:27.533Z,17.20
2019-03-29T10:01:27.591Z,18.08
2019-03-29T10:02:27.886Z,18.46
2019-03-29T10:03:27.452Z,19.27
2019-03-29T10:05:31.012Z,19.31
2019-03-29T10:06:27.430Z,19.34
2019-03-29T10:07:27.775Z,19.63
2019-03-29T10:09:27.688Z,19.12
2019-03-29T10:10:27.371Z,18.45
2019-03-29T10:11:27.342Z,18.18
2019-03-29T10:12:27.330Z,17.90
2019-03-29T10:13:27.331Z,18.08
2019-03-29T10:14:27.354Z,18.05
2019-03-29T10:15:27.323Z,18.54
2019-03-29T10:16:27.655Z,18.34
2019-03-29T10:17:27.499Z,17.10
2019-03-29T10:18:27.272Z,17.45
2019-03-29T10:19:28.037Z,17.81
2019-03-29T10:20:28.119Z,17.04
2019-03-29T10:21:27.350Z,17.24
2019-03-29T10:22:27.475Z,17.24
2019-03-29T10:28:28.298Z,17.07
2019-03-29T10:29:27.406Z,16.87
2019-03-29T10:30:27.154Z,16.43
2019-03-29T10:31:32.504Z,16.62
2019-03-29T10:33:27.140Z,16.94
2019-03-29T10:34:27.213Z,16.64
2019-03-29T10:35:27.393Z,17.17
2019-03-29T10:36:27.192Z,18.03
2019-03-29T10:37:27.080Z,19.63
2019-03-29T10:38:27.144Z,20.68
2019-03-29T10:39:27.043Z,20.55
2019-03-29T10:40:27.043Z,20.22
2019-03-29T10:41:27.341Z,20.73
2019-03-29T10:42:27.034Z,20.70
2019-03-29T10:43:27.423Z,20.30
2019-03-29T10:44:26.979Z,18.91
2019-03-29T10:45:26.993Z,18.18
2019-03-29T10:46:27.066Z,18.13
2019-03-29T10:48:27.582Z,19.15
2019-03-29T10:49:27.555Z,19.20
2019-03-29T10:50:27.170Z,18.78
2019-03-29T10:51:27.110Z,18.86
2019-03-29T10:54:27.200Z,17.13
2019-03-29T10:55:26.941Z,16.95
2019-03-29T10:56:33.989Z,17.04
2019-03-29T10:59:28.018Z,18.67
2019-03-29T11:02:26.825Z,18.82
2019-03-29T11:04:26.836Z,18.12
2019-03-29T11:05:27.074Z,17.86
2019-03-29T11:06:28.031Z,17.81
2019-03-29T11:07:28.435Z,17.56
2019-03-29T11:08:27.548Z,17.41
2019-03-29T11:09:27.355Z,17.31
2019-03-29T11:11:26.875Z,17.83
2019-03-29T11:12:26.818Z,17.20
2019-03-29T11:13:26.756Z,17.43
2019-03-29T11:14:26.721Z,17.78
2019-03-29T11:15:26.698Z,17.22
2019-03-29T11:16:27.054Z,17.27
2019-03-29T11:17:26.710Z,17.39
2019-03-29T11:18:26.677Z,17.38
2019-03-29T11:20:26.970Z,18.39
2019-03-29T11:21:26.929Z,18.15
2019-03-29T11:23:26.964Z,18.12
2019-03-29T11:25:26.674Z,18.93
2019-03-29T11:26:27.158Z,18.46
2019-03-29T11:27:27.161Z,18.30
2019-03-29T11:28:26.539Z,18.21
2019-03-29T11:29:26.556Z,18.39
2019-03-29T11:31:26.542Z,17.79
2019-03-29T11:32:26.496Z,17.88
2019-03-29T11:33:26.500Z,17.30
2019-03-29T11:34:26.776Z,17.13
2019-03-29T11:35:26.467Z,17.06
2019-03-29T11:36:26.482Z,17.24
2019-03-29T11:37:26.495Z,17.13
2019-03-29T11:38:26.465Z,17.30
2019-03-29T11:39:27.548Z,17.63
2019-03-29T11:40:26.551Z,18.33
2019-03-29T11:41:27.458Z,18.58
2019-03-29T11:42:26.565Z,19.59
2019-03-29T11:43:27.492Z,19.67
2019-03-29T11:44:26.384Z,19.62
2019-03-29T11:45:26.772Z,19.52
2019-03-29T11:46:30.133Z,19.56
2019-03-29T11:47:26.385Z,19.26
2019-03-29T11:48:29.428Z,18.75
2019-03-29T11:49:26.812Z,18.51
2019-03-29T11:50:29.082Z,18.17
2019-03-29T11:51:26.304Z,18.15
2019-03-29T11:53:26.642Z,18.42
2019-03-29T11:54:26.468Z,19.22
2019-03-29T11:57:26.223Z,19.34
2019-03-29T11:58:32.642Z,19.16
2019-03-29T11:59:26.318Z,19.68
2019-03-29T12:00:26.392Z,20.05
2019-03-29T12:01:26.380Z,20.39
2019-03-29T12:02:31.518Z,20.19
2019-03-29T12:03:26.203Z,19.24
2019-03-29T12:04:26.276Z,18.57
2019-03-29T12:05:26.747Z,18.76
2019-03-29T12:06:26.167Z,19.09
2019-03-29T12:08:26.121Z,19.30
2019-03-29T12:09:26.148Z,20.22
2019-03-29T12:11:29.896Z,20.26
2019-03-29T12:12:27.686Z,19.41
2019-03-29T12:13:40.019Z,18.54
2019-03-29T12:14:26.716Z,18.26
2019-03-29T12:16:26.505Z,18.48
2019-03-29T12:17:26.059Z,18.36
2019-03-29T12:18:26.162Z,18.91
2019-03-29T12:19:26.127Z,19.74
2019-03-29T12:21:26.010Z,21.03
2019-03-29T12:22:26.245Z,20.42
2019-03-29T12:23:26.313Z,20.65
2019-03-29T12:24:25.990Z,20.70
2019-03-29T12:25:27.392Z,20.04
2019-03-29T12:27:26.493Z,20.37
2019-03-29T12:28:29.131Z,19.60
2019-03-29T12:30:31.854Z,21.22
2019-03-29T12:31:35.394Z,21.91
2019-03-29T12:32:27.126Z,22.80
2019-03-29T12:33:27.825Z,23.70
2019-03-29T12:36:25.961Z,22.88
2019-03-29T12:37:26.018Z,22.06
2019-03-29T12:38:25.870Z,21.88
2019-03-29T12:40:26.029Z,21.60
2019-03-29T12:41:25.872Z,22.03
2019-03-29T12:43:26.201Z,22.53
2019-03-29T12:44:25.833Z,22.99
2019-03-29T12:45:26.226Z,23.36
2019-03-29T12:46:25.807Z,23.04
2019-03-29T12:47:25.885Z,22.43
2019-03-29T12:49:25.791Z,22.66
2019-03-29T12:50:25.775Z,22.27
2019-03-29T12:51:25.769Z,21.43
2019-03-29T12:52:25.761Z,21.75
2019-03-29T12:54:25.746Z,21.44
2019-03-29T12:55:25.740Z,21.08
2019-03-29T12:57:26.041Z,22.49
2019-03-29T12:58:26.830Z,21.55
2019-03-29T12:59:25.710Z,20.98
2019-03-29T13:00:25.719Z,20.55
2019-03-29T13:01:38.511Z,21.14
2019-03-29T13:02:25.708Z,21.44
2019-03-29T13:08:25.666Z,22.46
2019-03-29T13:09:25.674Z,21.59
2019-03-29T13:10:25.647Z,21.37
2019-03-29T13:11:25.651Z,21.56
2019-03-29T13:12:25.637Z,21.85
2019-03-29T13:13:26.003Z,22.67
2019-03-29T13:15:25.612Z,21.91
2019-03-29T13:16:27.506Z,21.07
2019-03-29T13:17:28.446Z,20.61
2019-03-29T13:19:25.611Z,20.46
2019-03-29T13:20:25.912Z,20.42
2019-03-29T13:21:25.568Z,20.58
2019-03-29T13:22:25.581Z,21.20
2019-03-29T13:23:25.554Z,21.53
2019-03-29T13:24:25.764Z,21.47
2019-03-29T13:25:25.545Z,20.55
2019-03-29T13:26:25.617Z,20.89
2019-03-29T13:27:25.886Z,21.04
2019-03-29T13:28:25.617Z,21.58
2019-03-29T13:29:25.817Z,21.84
2019-03-29T13:31:25.960Z,22.80
2019-03-29T13:32:25.747Z,21.77
2019-03-29T13:33:25.733Z,21.41
2019-03-29T13:35:25.486Z,21.81
2019-03-29T13:37:25.465Z,22.18
2019-03-29T13:38:25.458Z,22.43
2019-03-29T13:39:25.810Z,22.38
2019-03-29T13:41:25.438Z,22.23
2019-03-29T13:42:25.426Z,21.55
2019-03-29T13:43:25.425Z,21.84
2019-03-29T13:44:28.328Z,21.82
2019-03-29T13:45:27.830Z,21.01
2019-03-29T13:46:25.734Z,21.08
2019-03-29T13:47:25.395Z,21.69
2019-03-29T13:48:25.390Z,22.25
2019-03-29T13:49:25.378Z,22.77
2019-03-29T13:50:25.478Z,22.64
2019-03-29T13:51:25.851Z,22.52
2019-03-29T13:53:25.759Z,22.40
2019-03-29T13:54:25.439Z,22.43
2019-03-29T13:56:25.363Z,22.58
2019-03-29T13:57:25.350Z,21.88
2019-03-29T13:58:25.635Z,21.65
2019-03-29T13:59:25.328Z,22.06
2019-03-29T14:00:25.325Z,22.16
2019-03-29T14:01:25.382Z,22.78
2019-03-29T14:02:25.351Z,22.59
2019-03-29T14:14:37.654Z,22.04
2019-03-29T14:28:25.318Z,23.59
2019-03-29T14:29:25.126Z,23.31
2019-03-29T14:30:25.140Z,23.51
2019-03-29T14:31:25.305Z,23.67
2019-03-29T14:33:25.470Z,23.85
2019-03-29T14:34:25.101Z,23.70
2019-03-29T14:40:25.375Z,22.88
2019-03-29T14:42:25.031Z,23.34
2019-03-29T14:43:25.091Z,23.71
2019-03-29T14:44:25.533Z,23.66
2019-03-29T14:45:25.009Z,23.61
2019-03-29T14:47:38.530Z,23.89
2019-03-29T14:48:24.997Z,23.86
2019-03-29T14:49:24.992Z,24.07
2019-03-29T14:51:25.138Z,23.11
2019-03-29T14:52:25.280Z,22.55
2019-03-29T14:54:25.202Z,21.14
2019-03-29T14:55:24.953Z,20.67
2019-03-29T14:56:24.949Z,20.79
2019-03-29T14:58:24.921Z,21.63
2019-03-29T14:59:25.333Z,21.93
2019-03-29T15:00:25.238Z,21.90
2019-03-29T15:02:25.602Z,22.19
2019-03-29T15:03:25.105Z,22.27
2019-03-29T15:04:24.944Z,21.75
2019-03-29T15:05:24.889Z,21.63
2019-03-29T15:06:25.446Z,21.41
2019-03-29T15:07:25.232Z,21.77
2019-03-29T15:08:24.870Z,21.94
2019-03-29T15:11:24.949Z,21.40
2019-03-29T15:12:24.853Z,21.38
2019-03-29T15:13:25.130Z,21.88
2019-03-29T15:14:24.805Z,22.00
2019-03-29T15:15:24.805Z,22.11
2019-03-29T15:16:25.137Z,22.48
2019-03-29T15:17:24.852Z,22.51
2019-03-29T15:20:24.756Z,21.19
2019-03-29T15:21:24.775Z,20.88
2019-03-29T15:22:24.803Z,20.36
2019-03-29T15:23:24.736Z,20.33
2019-03-29T15:24:24.747Z,20.68
2019-03-29T15:25:25.044Z,20.80
2019-03-29T15:26:24.722Z,20.56
2019-03-29T15:27:24.782Z,20.50